createdAt,value
2022-12-14T17:28:44.910Z,30.77
2022-12-14T17:33:54.007Z,35.00
2022-12-14T17:38:59.475Z,32.73
2022-12-14T17:44:05.352Z,33.87
2022-12-14T17:49:13.245Z,33.67
2022-12-14T17:54:24.619Z,33.37
2022-12-14T17:59:28.307Z,34.67
2022-12-14T18:04:33.715Z,40.13
2022-12-14T18:09:39.135Z,37.93
2022-12-14T18:14:45.226Z,35.73
2022-12-14T18:19:51.319Z,36.80
2022-12-14T18:24:56.721Z,38.13
2022-12-14T18:30:02.202Z,40.80
2022-12-14T18:35:09.804Z,35.83
2022-12-14T18:40:17.917Z,40.83
2022-12-14T18:45:26.405Z,39.10
2022-12-14T18:50:32.075Z,46.70
2022-12-14T18:55:37.546Z,49.87
2022-12-14T19:00:43.033Z,50.77
2022-12-14T19:05:48.607Z,41.57
2022-12-14T19:10:54.036Z,42.37
2022-12-14T19:15:59.581Z,43.67
2022-12-14T19:21:06.448Z,44.57
2022-12-14T19:26:12.306Z,41.50
2022-12-14T19:31:18.746Z,45.27
2022-12-14T19:36:24.991Z,54.03
2022-12-14T19:41:31.632Z,56.47
2022-12-14T19:46:37.221Z,60.63
2022-12-14T19:51:42.720Z,49.40
2022-12-14T19:56:49.199Z,46.27
2022-12-14T20:01:54.963Z,45.77
2022-12-14T20:07:00.903Z,46.63
2022-12-14T20:12:08.560Z,54.83
2022-12-14T20:17:15.220Z,50.27
2022-12-14T20:22:20.795Z,53.33
2022-12-14T20:27:26.693Z,49.70
2022-12-14T20:32:32.264Z,55.27
2022-12-14T20:37:38.147Z,51.67
2022-12-14T20:42:44.048Z,58.40
2022-12-14T20:47:51.370Z,62.50
2022-12-14T20:52:56.845Z,59.40
2022-12-14T20:58:02.698Z,61.87
2022-12-14T21:03:08.367Z,58.33
2022-12-14T21:08:15.731Z,62.17
2022-12-14T21:13:21.117Z,61.67
2022-12-14T21:18:26.790Z,79.92
2022-12-14T21:23:32.837Z,63.27
2022-12-14T21:28:38.348Z,58.63
2022-12-14T21:33:49.744Z,57.87
2022-12-14T21:38:54.317Z,59.40
2022-12-14T21:44:00.753Z,65.13
2022-12-14T21:49:06.975Z,59.37
2022-12-14T21:54:15.548Z,62.67
2022-12-14T21:59:38.844Z,62.93
2022-12-14T22:04:47.095Z,60.33
2022-12-14T22:09:52.696Z,59.27
2022-12-14T22:14:58.265Z,65.37
2022-12-14T22:20:04.084Z,62.47
2022-12-14T22:25:10.175Z,63.23
2022-12-14T22:30:15.641Z,69.15
2022-12-14T22:35:21.245Z,66.23
2022-12-14T22:40:26.971Z,66.37
2022-12-14T22:45:32.362Z,64.47
2022-12-14T22:50:37.760Z,57.60
2022-12-14T22:55:45.108Z,59.57
2022-12-14T23:00:54.201Z,56.47
2022-12-14T23:06:02.233Z,60.53
2022-12-14T23:11:24.975Z,59.27
2022-12-14T23:16:49.965Z,66.50
2022-12-14T23:22:13.476Z,55.63
2022-12-14T23:27:36.945Z,62.57
2022-12-14T23:33:00.166Z,57.87
2022-12-14T23:38:25.495Z,71.40
2022-12-14T23:43:48.684Z,63.87
2022-12-14T23:49:15.905Z,65.20
2022-12-14T23:54:37.259Z,64.73
